createdAt,value
2022-10-15T00:01:08.523Z,100053.75
2022-10-15T00:03:39.588Z,100052.47
2022-10-15T00:06:08.665Z,100048.38
2022-10-15T00:08:36.368Z,100040.09
2022-10-15T00:11:05.432Z,100054.91
2022-10-15T00:13:33.803Z,100045.56
2022-10-15T00:16:01.835Z,100041.59
2022-10-15T00:18:31.043Z,100054.13
2022-10-15T00:20:58.582Z,100050.69
2022-10-15T00:23:26.290Z,100051.34
2022-10-15T00:26:02.418Z,100050.72
2022-10-15T00:28:33.392Z,100043.13
2022-10-15T00:33:37.613Z,100030.22
2022-10-15T00:36:07.420Z,100031.81
2022-10-15T00:38:35.336Z,100034.78
2022-10-15T00:41:03.243Z,100027.41
2022-10-15T00:43:43.394Z,100031.41
2022-10-15T00:46:18.844Z,100021.59
2022-10-15T00:48:51.522Z,100026.03
2022-10-15T00:51:20.425Z,100026.84
2022-10-15T00:53:49.439Z,100034.09
2022-10-15T00:56:18.095Z,100031.69
2022-10-15T00:58:45.866Z,100028.00
2022-10-15T01:01:13.486Z,100023.47
2022-10-15T01:03:41.090Z,100030.00
2022-10-15T01:06:10.028Z,100027.63
2022-10-15T01:08:37.708Z,100022.69
2022-10-15T01:11:15.486Z,100019.84
2022-10-15T01:13:50.704Z,100016.28
2022-10-15T01:16:20.393Z,100008.91
2022-10-15T01:18:53.219Z,100016.09
2022-10-15T01:21:26.028Z,100013.69
2022-10-15T01:24:45.649Z,100019.41
2022-10-15T01:27:24.226Z,100013.75
2022-10-15T01:30:27.517Z,100012.00
2022-10-15T01:33:03.346Z,100006.63
2022-10-15T01:35:36.822Z,100011.31
2022-10-15T01:38:10.922Z,100009.19
2022-10-15T01:40:43.479Z,100005.31
2022-10-15T01:43:13.045Z,100005.31
2022-10-15T01:45:46.390Z,99999.63
2022-10-15T01:48:14.179Z,100001.97
2022-10-15T01:50:44.869Z,100006.16
2022-10-15T01:53:13.007Z,100004.00
2022-10-15T01:55:43.292Z,99995.09
2022-10-15T01:58:12.163Z,100001.09
2022-10-15T02:00:39.966Z,100001.94
2022-10-15T02:03:08.841Z,99993.59
2022-10-15T02:05:39.161Z,100004.22
2022-10-15T02:08:11.720Z,99996.53
2022-10-15T02:13:15.668Z,99988.94
2022-10-15T02:15:47.394Z,99988.69
2022-10-15T02:18:19.870Z,99984.25
2022-10-15T02:20:52.643Z,99984.75
2022-10-15T02:23:22.713Z,99986.19
2022-10-15T02:25:52.388Z,99976.53
2022-10-15T02:28:20.427Z,99975.91
2022-10-15T02:30:50.898Z,99980.47
2022-10-15T02:33:21.596Z,99970.47
2022-10-15T02:35:50.699Z,99966.06
2022-10-15T02:38:21.338Z,99970.69
2022-10-15T02:40:49.422Z,99966.13
2022-10-15T02:43:17.273Z,99965.94
2022-10-15T02:45:44.784Z,99969.50
2022-10-15T02:48:12.279Z,99970.31
2022-10-15T02:50:41.107Z,99965.69
2022-10-15T02:53:08.721Z,99968.09
2022-10-15T02:55:36.257Z,99959.41
2022-10-15T02:58:03.772Z,99956.88
2022-10-15T03:00:31.467Z,99949.56
2022-10-15T03:02:58.965Z,99949.19
2022-10-15T03:08:01.732Z,99950.16
2022-10-15T03:10:29.235Z,99944.75
2022-10-15T03:12:56.703Z,99943.75
2022-10-15T03:15:24.248Z,99945.34
2022-10-15T03:17:51.756Z,99948.31
2022-10-15T03:20:19.473Z,99948.91
2022-10-15T03:22:46.974Z,99943.91
2022-10-15T03:25:15.960Z,99947.13
2022-10-15T03:27:43.653Z,99944.16
2022-10-15T03:30:11.998Z,99941.72
2022-10-15T03:32:39.594Z,99952.22
2022-10-15T03:35:07.963Z,99954.84
2022-10-15T03:37:35.489Z,99947.28
2022-10-15T03:40:03.152Z,99953.50
2022-10-15T03:42:32.031Z,99954.38
2022-10-15T03:44:59.517Z,99943.09
2022-10-15T03:47:27.116Z,99947.09
2022-10-15T03:49:54.620Z,99951.09
2022-10-15T03:52:22.413Z,99943.94
2022-10-15T03:54:50.159Z,99945.88
2022-10-15T03:57:17.648Z,99944.44
2022-10-15T03:59:46.510Z,99953.13
2022-10-15T04:02:14.023Z,99942.66
2022-10-15T04:04:41.519Z,99937.03
2022-10-15T04:07:09.026Z,99933.25
2022-10-15T04:09:36.543Z,99932.31
2022-10-15T04:12:04.133Z,99919.81
2022-10-15T04:14:31.639Z,99921.47
2022-10-15T04:17:00.547Z,99915.69
2022-10-15T04:19:28.050Z,99920.16
2022-10-15T04:21:55.657Z,99915.00
2022-10-15T04:24:23.446Z,99920.28
2022-10-15T04:26:51.000Z,99912.50
2022-10-15T04:29:18.634Z,99922.25
2022-10-15T04:31:46.153Z,99918.41
2022-10-15T04:34:15.015Z,99918.16
2022-10-15T04:36:42.495Z,99924.16
2022-10-15T04:39:12.257Z,99917.44
2022-10-15T04:41:41.999Z,99924.41
2022-10-15T04:44:09.510Z,99918.50
2022-10-15T04:46:37.043Z,99918.00
2022-10-15T04:49:04.568Z,99911.53
2022-10-15T04:51:33.415Z,99925.97
2022-10-15T04:54:01.603Z,99923.97
2022-10-15T04:56:29.232Z,99926.47
2022-10-15T04:58:56.889Z,99921.19
2022-10-15T05:01:24.766Z,99925.75
2022-10-15T05:03:52.237Z,99922.88
2022-10-15T05:06:21.020Z,99920.47
2022-10-15T05:08:50.354Z,99937.16
2022-10-15T05:11:19.497Z,99925.97
2022-10-15T05:13:47.088Z,99934.41
2022-10-15T05:16:16.476Z,99937.56
2022-10-15T05:18:45.475Z,99936.25
2022-10-15T05:21:13.708Z,99942.00
2022-10-15T05:23:41.308Z,99940.47
2022-10-15T05:26:13.534Z,99942.00
2022-10-15T05:28:41.130Z,99930.69
2022-10-15T05:31:10.974Z,99941.53
2022-10-15T05:33:40.227Z,99938.38
2022-10-15T05:36:11.665Z,99938.50
2022-10-15T05:38:39.226Z,99935.28
2022-10-15T05:41:07.217Z,99941.53
2022-10-15T05:43:38.782Z,99943.16
2022-10-15T05:46:08.807Z,99939.03
2022-10-15T05:48:36.335Z,99945.41
2022-10-15T05:51:04.763Z,99942.91
2022-10-15T05:53:32.610Z,99950.72
2022-10-15T05:56:00.203Z,99950.34
2022-10-15T05:58:30.880Z,99957.41
2022-10-15T06:01:04.047Z,99961.03
2022-10-15T06:03:31.672Z,99945.03
2022-10-15T06:05:59.199Z,99950.06
2022-10-15T06:08:26.796Z,99965.28
2022-10-15T06:10:54.292Z,99957.59
2022-10-15T06:13:21.855Z,99948.25
2022-10-15T06:15:49.486Z,99947.94
2022-10-15T06:18:18.343Z,99954.75
2022-10-15T06:20:45.892Z,99952.41
2022-10-15T06:23:13.395Z,99959.00
2022-10-15T06:25:40.954Z,99946.72
2022-10-15T06:28:09.462Z,99956.81
2022-10-15T06:30:36.934Z,99957.75
2022-10-15T06:33:04.705Z,99953.22
2022-10-15T06:35:35.270Z,99951.50
2022-10-15T06:38:03.394Z,99953.88
2022-10-15T06:40:31.537Z,99943.53
2022-10-15T06:43:04.691Z,99956.91
2022-10-15T06:45:32.282Z,99952.31
2022-10-15T06:47:59.778Z,99951.16
2022-10-15T06:50:27.390Z,99948.44
2022-10-15T06:52:56.316Z,99944.94
2022-10-15T06:55:23.859Z,99954.25
2022-10-15T06:57:51.409Z,99961.59
2022-10-15T07:00:19.208Z,99956.91
2022-10-15T07:02:46.691Z,99964.78
2022-10-15T07:05:14.327Z,99955.06
2022-10-15T07:07:41.880Z,99961.22
2022-10-15T07:10:11.112Z,99970.13
2022-10-15T07:12:38.690Z,99976.84
2022-10-15T07:15:07.407Z,99970.19
2022-10-15T07:17:35.213Z,99979.19
2022-10-15T07:20:02.713Z,99978.06
2022-10-15T07:22:30.241Z,99979.03
2022-10-15T07:24:57.790Z,99978.66
2022-10-15T07:27:26.621Z,99980.44
2022-10-15T07:29:54.151Z,99980.34
2022-10-15T07:32:21.939Z,99970.91
2022-10-15T07:34:49.683Z,99974.25
2022-10-15T07:37:17.225Z,99976.06
2022-10-15T07:39:44.731Z,99973.13
2022-10-15T07:44:42.020Z,99972.31
2022-10-15T07:47:09.526Z,99970.47
2022-10-15T07:49:37.024Z,99959.41
2022-10-15T07:52:04.539Z,99970.22
2022-10-15T07:54:33.595Z,99960.28
2022-10-15T07:57:01.106Z,99953.09
2022-10-15T07:59:28.616Z,99959.25
2022-10-15T08:01:57.451Z,99967.94
2022-10-15T08:04:25.062Z,99961.47
2022-10-15T08:06:52.570Z,99963.56
2022-10-15T08:09:20.234Z,99967.00
2022-10-15T08:11:47.759Z,99969.94
2022-10-15T08:14:15.376Z,99958.09
2022-10-15T08:16:42.883Z,99962.09
2022-10-15T08:19:11.731Z,99958.16
2022-10-15T08:21:40.944Z,99960.97
2022-10-15T08:24:10.397Z,99970.69
2022-10-15T08:26:37.988Z,99974.53
2022-10-15T08:29:05.601Z,99976.50
2022-10-15T08:31:33.191Z,99967.56
2022-10-15T08:34:00.984Z,99971.91
2022-10-15T08:36:29.935Z,99966.09
2022-10-15T08:38:57.706Z,99971.09
2022-10-15T08:41:31.492Z,99968.94
2022-10-15T08:43:59.711Z,99975.41
2022-10-15T08:46:37.235Z,99977.38
2022-10-15T08:49:05.897Z,99975.34
2022-10-15T08:51:42.646Z,99983.00
2022-10-15T08:54:14.836Z,99977.56
2022-10-15T08:56:45.594Z,99960.44
2022-10-15T08:59:19.309Z,99966.88
2022-10-15T09:01:52.195Z,99960.84
2022-10-15T09:07:10.481Z,99953.78
2022-10-15T09:09:45.277Z,99978.91
2022-10-15T09:12:23.332Z,99967.84
2022-10-15T09:14:51.072Z,99976.19
2022-10-15T09:17:22.509Z,99972.91
2022-10-15T09:19:51.086Z,99974.38
2022-10-15T09:22:26.437Z,99959.16
2022-10-15T09:24:54.205Z,99968.81
2022-10-15T09:27:27.850Z,99956.59
2022-10-15T09:30:01.736Z,99967.94
2022-10-15T09:32:33.344Z,99955.03
2022-10-15T09:35:06.989Z,99948.91
2022-10-15T09:37:42.806Z,99952.00
2022-10-15T09:40:25.741Z,99950.53
2022-10-15T09:42:54.628Z,99946.72
2022-10-15T09:45:24.473Z,99942.13
2022-10-15T09:47:52.974Z,99941.28
2022-10-15T09:50:20.727Z,99927.78
2022-10-15T09:53:01.826Z,99924.13
2022-10-15T09:55:36.282Z,99922.06
2022-10-15T09:58:06.171Z,99934.31
2022-10-15T10:01:01.635Z,99916.63
2022-10-15T10:03:30.844Z,99922.50
2022-10-15T10:06:04.339Z,99932.72
2022-10-15T10:08:36.859Z,99932.66
2022-10-15T10:11:06.157Z,99932.31
2022-10-15T10:13:35.815Z,99930.22
2022-10-15T10:16:06.029Z,99923.75
2022-10-15T10:18:33.785Z,99912.56
2022-10-15T10:21:02.404Z,99919.13
2022-10-15T10:23:34.527Z,99912.38
2022-10-15T10:26:05.744Z,99916.25
2022-10-15T10:28:35.980Z,99922.72
2022-10-15T10:31:07.867Z,99912.66
2022-10-15T10:33:37.565Z,99911.19
2022-10-15T10:36:06.702Z,99892.94
2022-10-15T10:38:35.858Z,99901.66
2022-10-15T10:41:07.731Z,99898.22
2022-10-15T10:43:39.180Z,99889.00
2022-10-15T10:46:18.240Z,99870.59
2022-10-15T10:48:47.469Z,99880.97
2022-10-15T10:51:19.351Z,99854.81
2022-10-15T10:53:52.894Z,99860.22
2022-10-15T10:56:24.544Z,99867.53
2022-10-15T10:58:59.488Z,99879.34
2022-10-15T11:01:28.089Z,99881.56
2022-10-15T11:03:55.590Z,99859.25
2022-10-15T11:06:38.052Z,99869.56
2022-10-15T11:09:18.939Z,99873.44
2022-10-15T11:11:56.519Z,99863.13
2022-10-15T11:14:28.876Z,99858.03
2022-10-15T11:17:01.402Z,99852.44
2022-10-15T11:19:55.007Z,99846.50
2022-10-15T11:22:33.628Z,99855.28
2022-10-15T11:25:07.904Z,99851.88
2022-10-15T11:27:51.055Z,99845.53
2022-10-15T11:30:28.759Z,99828.09
2022-10-15T11:33:07.790Z,99826.94
2022-10-15T11:35:59.032Z,99828.97
2022-10-15T11:38:30.262Z,99802.75
2022-10-15T11:41:11.176Z,99817.00
2022-10-15T11:43:49.832Z,99828.97
2022-10-15T11:46:21.796Z,99820.06
2022-10-15T11:49:02.954Z,99822.50
2022-10-15T11:51:34.366Z,99817.81
2022-10-15T11:54:23.162Z,99810.06
2022-10-15T11:56:53.336Z,99819.53
2022-10-15T11:59:30.973Z,99808.81
2022-10-15T12:02:01.328Z,99813.00
2022-10-15T12:04:33.462Z,99806.41
2022-10-15T12:07:03.041Z,99800.03
2022-10-15T12:09:37.680Z,99796.66
2022-10-15T12:12:10.696Z,99798.75
2022-10-15T12:14:42.571Z,99791.41
2022-10-15T12:17:15.575Z,99794.13
2022-10-15T12:19:46.586Z,99782.28
2022-10-15T12:22:14.101Z,99779.06
2022-10-15T12:24:53.532Z,99773.66
2022-10-15T12:27:24.533Z,99771.03
2022-10-15T12:30:20.160Z,99768.72
2022-10-15T12:32:48.779Z,99770.59
2022-10-15T12:35:23.101Z,99775.13
2022-10-15T12:37:50.811Z,99762.84
2022-10-15T12:40:28.499Z,99760.44
2022-10-15T12:42:58.852Z,99767.03
2022-10-15T12:45:35.875Z,99755.97
2022-10-15T12:48:22.680Z,99752.81
2022-10-15T12:50:50.320Z,99759.19
2022-10-15T12:53:32.361Z,99751.97
2022-10-15T12:56:23.570Z,99735.91
2022-10-15T12:58:52.148Z,99741.72
2022-10-15T13:01:30.691Z,99730.22
2022-10-15T13:04:00.077Z,99733.19
2022-10-15T13:06:33.274Z,99737.59
2022-10-15T13:09:20.041Z,99720.44
2022-10-15T13:11:49.027Z,99732.72
2022-10-15T13:14:23.001Z,99728.75
2022-10-15T13:16:52.022Z,99730.81
2022-10-15T13:19:20.323Z,99729.91
2022-10-15T13:21:49.559Z,99730.94
2022-10-15T13:24:19.247Z,99720.69
2022-10-15T13:26:46.983Z,99717.97
2022-10-15T13:29:17.052Z,99726.72
2022-10-15T13:31:45.786Z,99719.91
2022-10-15T13:34:22.773Z,99724.38
2022-10-15T13:36:50.848Z,99731.91
2022-10-15T13:39:29.631Z,99724.00
2022-10-15T13:42:08.266Z,99728.94
2022-10-15T13:44:36.183Z,99741.50
2022-10-15T13:47:04.132Z,99740.03
2022-10-15T13:49:33.039Z,99740.97
2022-10-15T13:52:00.575Z,99743.44
2022-10-15T13:54:31.355Z,99725.59
2022-10-15T13:57:01.879Z,99737.78
2022-10-15T13:59:31.275Z,99747.28
2022-10-15T14:02:00.870Z,99740.94
2022-10-15T14:04:29.389Z,99735.00
2022-10-15T14:07:01.821Z,99743.69
2022-10-15T14:09:32.390Z,99742.97
2022-10-15T14:12:03.482Z,99747.31
2022-10-15T14:14:34.231Z,99745.34
2022-10-15T14:17:02.714Z,99741.34
2022-10-15T14:19:31.163Z,99747.88
2022-10-15T14:22:01.222Z,99741.47
2022-10-15T14:24:33.227Z,99746.28
2022-10-15T14:27:05.926Z,99747.50
2022-10-15T14:29:39.576Z,99749.88
2022-10-15T14:32:25.438Z,99753.00
2022-10-15T14:34:54.111Z,99753.34
2022-10-15T14:37:42.685Z,99755.59
2022-10-15T14:40:19.770Z,99758.78
2022-10-15T14:42:48.746Z,99759.09
2022-10-15T14:45:22.779Z,99763.22
2022-10-15T14:47:52.308Z,99765.41
2022-10-15T14:50:20.537Z,99771.41
2022-10-15T14:52:51.626Z,99759.88
2022-10-15T14:55:33.029Z,99770.28
2022-10-15T14:58:02.026Z,99766.75
2022-10-15T15:00:32.481Z,99765.47
2022-10-15T15:03:05.229Z,99773.03
2022-10-15T15:05:45.253Z,99770.81
2022-10-15T15:08:14.173Z,99768.53
2022-10-15T15:10:42.188Z,99775.31
2022-10-15T15:13:12.791Z,99789.94
2022-10-15T15:15:41.259Z,99784.13
2022-10-15T15:18:10.273Z,99785.28
2022-10-15T15:20:37.969Z,99779.06
2022-10-15T15:23:05.502Z,99781.19
2022-10-15T15:25:36.980Z,99776.34
2022-10-15T15:28:05.306Z,99780.56
2022-10-15T15:30:34.295Z,99789.38
2022-10-15T15:33:02.050Z,99784.78
2022-10-15T15:35:33.717Z,99790.81
2022-10-15T15:38:01.255Z,99799.16
2022-10-15T15:40:28.814Z,99799.94
2022-10-15T15:42:57.650Z,99797.84
2022-10-15T15:45:27.306Z,99792.72
2022-10-15T15:47:56.204Z,99794.97
2022-10-15T15:50:23.715Z,99809.53
2022-10-15T15:52:51.332Z,99802.69
2022-10-15T15:55:18.906Z,99803.69
2022-10-15T15:57:46.426Z,99808.34
2022-10-15T16:00:16.283Z,99811.69
2022-10-15T16:02:44.130Z,99824.31
2022-10-15T16:05:14.063Z,99831.50
2022-10-15T16:07:41.651Z,99823.19
2022-10-15T16:10:11.863Z,99823.84
2022-10-15T16:12:39.546Z,99813.19
2022-10-15T16:15:11.645Z,99816.16
2022-10-15T16:17:43.622Z,99814.59
2022-10-15T16:20:12.626Z,99832.34
2022-10-15T16:22:40.282Z,99831.66
2022-10-15T16:25:09.139Z,99841.63
2022-10-15T16:27:36.972Z,99839.47
2022-10-15T16:30:05.215Z,99846.72
2022-10-15T16:32:32.747Z,99851.19
2022-10-15T16:35:01.610Z,99858.34
2022-10-15T16:37:29.118Z,99866.31
2022-10-15T16:39:57.023Z,99867.19
2022-10-15T16:42:24.517Z,99860.59
2022-10-15T16:44:52.682Z,99870.97
2022-10-15T16:47:21.289Z,99871.44
2022-10-15T16:49:48.933Z,99868.41
2022-10-15T16:52:17.916Z,99875.66
2022-10-15T16:54:45.419Z,99887.69
2022-10-15T16:57:12.974Z,99895.00
2022-10-15T16:59:40.489Z,99900.22
2022-10-15T17:02:08.078Z,99902.31
2022-10-15T17:04:35.670Z,99903.94
2022-10-15T17:07:03.220Z,99909.63
2022-10-15T17:09:32.297Z,99905.66
2022-10-15T17:11:59.871Z,99911.94
2022-10-15T17:14:27.644Z,99924.66
2022-10-15T17:16:55.158Z,99924.50
2022-10-15T17:19:27.766Z,99923.75
2022-10-15T17:21:58.235Z,99928.31
2022-10-15T17:24:25.716Z,99942.69
2022-10-15T17:26:57.959Z,99937.69
2022-10-15T17:29:29.091Z,99939.69
2022-10-15T17:32:01.891Z,99950.59
2022-10-15T17:34:29.535Z,99965.72
2022-10-15T17:36:57.075Z,99959.31
2022-10-15T17:39:24.803Z,99969.94
2022-10-15T17:41:53.966Z,99974.97
2022-10-15T17:44:22.143Z,99984.75
2022-10-15T17:46:50.369Z,99995.44
2022-10-15T17:49:18.690Z,100000.72
2022-10-15T17:51:46.725Z,100008.59
2022-10-15T17:54:14.292Z,100015.38
2022-10-15T17:56:41.823Z,100008.16
2022-10-15T17:59:12.699Z,100024.22
2022-10-15T18:01:58.743Z,100023.72
2022-10-15T18:04:27.896Z,100034.47
2022-10-15T18:06:55.689Z,100032.66
2022-10-15T18:09:23.156Z,100033.94
2022-10-15T18:11:50.732Z,100042.97
2022-10-15T18:16:48.103Z,100039.19
2022-10-15T18:19:15.620Z,100028.28
2022-10-15T18:21:47.002Z,100042.81
2022-10-15T18:24:19.865Z,100052.34
2022-10-15T18:26:47.461Z,100059.91
2022-10-15T18:29:15.011Z,100054.72
2022-10-15T18:31:43.911Z,100062.34
2022-10-15T18:34:11.432Z,100064.16
2022-10-15T18:36:41.504Z,100062.72
2022-10-15T18:39:09.120Z,100068.88
2022-10-15T18:41:38.149Z,100070.59
2022-10-15T18:44:07.241Z,100074.41
2022-10-15T18:46:35.812Z,100084.56
2022-10-15T18:49:04.715Z,100072.63
2022-10-15T18:51:32.362Z,100085.06
2022-10-15T18:54:00.174Z,100090.44
2022-10-15T18:56:28.396Z,100089.94
2022-10-15T18:58:55.919Z,100101.69
2022-10-15T19:01:26.648Z,100098.94
2022-10-15T19:03:54.276Z,100096.03
2022-10-15T19:06:24.446Z,100083.63
2022-10-15T19:08:52.381Z,100099.28
2022-10-15T19:11:20.221Z,100097.41
2022-10-15T19:13:47.767Z,100097.06
2022-10-15T19:16:15.357Z,100096.69
2022-10-15T19:18:42.883Z,100089.59
2022-10-15T19:21:12.044Z,100088.91
2022-10-15T19:23:40.928Z,100096.50
2022-10-15T19:26:09.348Z,100098.69
2022-10-15T19:28:37.494Z,100088.66
2022-10-15T19:31:07.020Z,100103.94
2022-10-15T19:33:35.996Z,100095.75
2022-10-15T19:36:03.642Z,100075.13
2022-10-15T19:38:31.341Z,100081.84
2022-10-15T19:41:02.921Z,100091.19
2022-10-15T19:43:30.506Z,100091.91
2022-10-15T19:46:03.775Z,100093.72
2022-10-15T19:48:32.030Z,100102.69
2022-10-15T19:51:02.124Z,100105.88
2022-10-15T19:53:30.291Z,100099.72
2022-10-15T19:56:00.836Z,100105.69
2022-10-15T19:58:28.395Z,100112.94
2022-10-15T20:00:56.491Z,100111.53
2022-10-15T20:03:27.945Z,100112.75
2022-10-15T20:05:56.199Z,100121.13
2022-10-15T20:08:24.372Z,100109.91
2022-10-15T20:10:52.693Z,100114.78
2022-10-15T20:13:23.423Z,100118.66
2022-10-15T20:15:52.471Z,100122.38
2022-10-15T20:18:20.517Z,100118.13
2022-10-15T20:20:48.868Z,100123.59
2022-10-15T20:23:17.724Z,100118.16
2022-10-15T20:25:45.701Z,100118.16
2022-10-15T20:28:14.291Z,100110.59
2022-10-15T20:30:43.447Z,100114.59
2022-10-15T20:33:11.812Z,100132.06
2022-10-15T20:35:40.246Z,100120.72
2022-10-15T20:38:08.201Z,100130.31
2022-10-15T20:40:36.548Z,100140.44
2022-10-15T20:43:04.081Z,100140.88
2022-10-15T20:45:34.494Z,100141.91
2022-10-15T20:48:03.999Z,100145.03
2022-10-15T20:50:33.567Z,100136.03
2022-10-15T20:53:01.218Z,100164.00
2022-10-15T20:55:29.490Z,100153.75
2022-10-15T20:57:57.028Z,100145.50
2022-10-15T21:00:24.542Z,100143.22
2022-10-15T21:02:52.049Z,100149.47
2022-10-15T21:05:21.449Z,100146.50
2022-10-15T21:07:48.990Z,100150.91
2022-10-15T21:10:16.524Z,100150.28
2022-10-15T21:12:44.049Z,100140.00
2022-10-15T21:15:12.789Z,100146.66
2022-10-15T21:17:40.933Z,100154.22
2022-10-15T21:20:09.758Z,100155.97
2022-10-15T21:22:38.634Z,100161.22
2022-10-15T21:25:07.311Z,100182.53
2022-10-15T21:27:35.070Z,100185.34
2022-10-15T21:30:02.715Z,100173.09
2022-10-15T21:32:30.261Z,100182.53
2022-10-15T21:34:57.759Z,100164.34
2022-10-15T21:37:25.474Z,100180.75
2022-10-15T21:39:54.503Z,100172.19
2022-10-15T21:42:22.039Z,100177.22
2022-10-15T21:44:49.619Z,100183.66
2022-10-15T21:47:17.123Z,100176.44
2022-10-15T21:49:45.700Z,100192.63
2022-10-15T21:52:13.487Z,100185.47
2022-10-15T21:54:41.007Z,100179.66
2022-10-15T21:57:09.867Z,100190.72
2022-10-15T21:59:37.381Z,100185.09
2022-10-15T22:02:05.130Z,100204.16
2022-10-15T22:04:34.155Z,100202.81
2022-10-15T22:07:01.686Z,100199.66
2022-10-15T22:09:29.686Z,100207.00
2022-10-15T22:11:57.212Z,100205.53
2022-10-15T22:14:26.068Z,100196.13
2022-10-15T22:16:53.571Z,100196.06
2022-10-15T22:19:21.111Z,100197.16
2022-10-15T22:21:48.614Z,100209.22
2022-10-15T22:24:17.985Z,100207.91
2022-10-15T22:26:47.581Z,100211.31
2022-10-15T22:29:18.899Z,100210.34
2022-10-15T22:31:48.108Z,100215.59
2022-10-15T22:34:15.707Z,100221.16
2022-10-15T22:36:43.291Z,100225.25
2022-10-15T22:39:13.813Z,100220.44
2022-10-15T22:41:43.286Z,100229.25
2022-10-15T22:44:14.256Z,100235.13
2022-10-15T22:46:45.911Z,100227.22
2022-10-15T22:49:15.126Z,100224.59
2022-10-15T22:51:42.846Z,100232.50
2022-10-15T22:54:10.443Z,100228.16
2022-10-15T22:56:38.125Z,100226.47
2022-10-15T22:59:06.170Z,100221.88
2022-10-15T23:01:34.684Z,100220.47
2022-10-15T23:04:03.816Z,100229.81
2022-10-15T23:06:34.292Z,100243.00
2022-10-15T23:09:01.865Z,100220.91
2022-10-15T23:11:31.893Z,100229.53
2022-10-15T23:14:00.456Z,100219.53
2022-10-15T23:16:30.115Z,100225.03
2022-10-15T23:18:58.985Z,100229.47
2022-10-15T23:21:29.989Z,100218.53
2022-10-15T23:23:58.959Z,100226.16
2022-10-15T23:26:26.499Z,100220.13
2022-10-15T23:28:57.335Z,100236.34
2022-10-15T23:31:28.541Z,100239.19
2022-10-15T23:33:57.267Z,100241.09
2022-10-15T23:36:25.870Z,100244.81
2022-10-15T23:38:54.895Z,100245.97
2022-10-15T23:41:23.932Z,100250.44
2022-10-15T23:43:51.567Z,100236.03
2022-10-15T23:46:19.223Z,100254.28
2022-10-15T23:48:47.571Z,100250.72
2022-10-15T23:51:15.351Z,100266.34
2022-10-15T23:56:11.504Z,100245.03
2022-10-15T23:58:40.910Z,100252.81
